createdAt,value
2022-08-07T00:00:58.291Z,53.55
2022-08-07T00:02:36.314Z,55.90
2022-08-07T00:02:58.284Z,53.63
2022-08-07T00:03:57.278Z,58.78
2022-08-07T00:04:57.329Z,56.19
2022-08-07T00:05:57.232Z,55.87
2022-08-07T00:07:01.363Z,56.69
2022-08-07T00:07:58.537Z,54.55
2022-08-07T00:08:57.212Z,51.96
2022-08-07T00:10:19.172Z,51.40
2022-08-07T00:10:58.479Z,55.18
2022-08-07T00:11:58.885Z,56.21
2022-08-07T00:13:00.383Z,53.88
2022-08-07T00:13:57.180Z,55.33
2022-08-07T00:14:57.179Z,54.77
2022-08-07T00:15:57.176Z,51.55
2022-08-07T00:16:57.157Z,52.82
2022-08-07T00:17:57.139Z,54.54
2022-08-07T00:18:57.132Z,52.29
2022-08-07T00:20:01.391Z,53.99
2022-08-07T00:21:01.731Z,53.13
2022-08-07T00:22:01.997Z,52.55
2022-08-07T00:22:57.104Z,54.16
2022-08-07T00:23:57.091Z,53.69
2022-08-07T00:24:57.092Z,51.43
2022-08-07T00:26:00.268Z,51.83
2022-08-07T00:27:06.229Z,55.36
2022-08-07T00:27:58.060Z,50.94
2022-08-07T00:28:57.199Z,55.09
2022-08-07T00:29:57.044Z,49.33
2022-08-07T00:30:57.043Z,48.80
2022-08-07T00:31:57.093Z,57.68
2022-08-07T00:32:57.043Z,57.15
2022-08-07T00:33:57.018Z,55.13
2022-08-07T00:34:57.002Z,49.92
2022-08-07T00:35:57.025Z,53.30
2022-08-07T00:36:56.995Z,51.15
2022-08-07T00:37:56.985Z,54.23
2022-08-07T00:38:57.023Z,51.51
2022-08-07T00:39:57.032Z,48.61
2022-08-07T00:40:56.967Z,51.21
2022-08-07T00:42:01.962Z,56.63
2022-08-07T00:42:57.951Z,54.33
2022-08-07T00:43:59.244Z,56.22
2022-08-07T00:44:56.938Z,54.45
2022-08-07T00:45:56.916Z,59.72
2022-08-07T00:46:56.909Z,53.49
2022-08-07T00:48:08.352Z,50.87
2022-08-07T00:48:57.918Z,56.96
2022-08-07T00:50:19.692Z,53.21
2022-08-07T00:50:57.912Z,53.94
2022-08-07T00:51:58.660Z,57.13
2022-08-07T00:52:56.867Z,49.83
2022-08-07T00:53:56.872Z,54.32
2022-08-07T00:54:56.869Z,52.65
2022-08-07T00:56:02.346Z,52.49
2022-08-07T00:56:57.837Z,56.57
2022-08-07T00:57:56.821Z,51.90
2022-08-07T00:58:56.821Z,49.05
2022-08-07T00:59:56.812Z,50.94
2022-08-07T01:00:56.823Z,55.29
2022-08-07T01:01:57.013Z,54.31
2022-08-07T01:02:56.814Z,53.01
2022-08-07T01:04:00.134Z,53.25
2022-08-07T01:04:58.654Z,53.79
2022-08-07T01:05:56.763Z,53.78
2022-08-07T01:06:56.792Z,56.25
2022-08-07T01:07:56.751Z,57.32
2022-08-07T01:09:00.574Z,50.90
2022-08-07T01:10:06.424Z,55.96
2022-08-07T01:10:58.465Z,50.68
2022-08-07T01:12:23.931Z,55.15
2022-08-07T01:12:57.699Z,52.70
2022-08-07T01:13:56.693Z,56.63
2022-08-07T01:14:57.154Z,54.78
2022-08-07T01:16:00.792Z,53.35
2022-08-07T01:16:57.691Z,56.39
2022-08-07T01:17:56.664Z,54.35
2022-08-07T01:18:56.659Z,55.44
2022-08-07T01:19:56.647Z,51.62
2022-08-07T01:20:59.455Z,55.29
2022-08-07T01:21:56.654Z,52.81
2022-08-07T01:23:12.415Z,56.52
2022-08-07T01:23:57.621Z,56.94
2022-08-07T01:24:56.603Z,54.09
2022-08-07T01:25:56.626Z,56.29
2022-08-07T01:26:56.579Z,56.76
2022-08-07T01:27:56.606Z,52.74
2022-08-07T01:28:56.566Z,56.45
2022-08-07T01:29:56.564Z,53.24
2022-08-07T01:30:56.546Z,54.90
2022-08-07T01:31:59.431Z,51.83
2022-08-07T01:32:56.562Z,55.41
2022-08-07T01:33:57.565Z,55.30
2022-08-07T01:34:57.295Z,54.08
2022-08-07T01:36:06.201Z,56.70
2022-08-07T01:36:57.935Z,56.78
2022-08-07T01:37:56.495Z,55.84
2022-08-07T01:38:56.535Z,54.47
2022-08-07T01:39:56.637Z,56.83
2022-08-07T01:40:56.478Z,56.90
2022-08-07T01:42:37.109Z,50.45
2022-08-07T01:42:59.132Z,56.09
2022-08-07T01:43:56.490Z,57.58
2022-08-07T01:44:56.444Z,52.98
2022-08-07T01:45:56.439Z,53.47
2022-08-07T01:46:56.413Z,52.74
2022-08-07T01:48:19.745Z,53.59
2022-08-07T01:48:57.435Z,54.52
2022-08-07T01:49:56.396Z,57.59
2022-08-07T01:50:56.392Z,53.66
2022-08-07T01:52:04.004Z,54.84
2022-08-07T01:52:57.382Z,55.46
2022-08-07T01:54:08.952Z,55.64
2022-08-07T01:54:58.969Z,58.20
2022-08-07T01:55:56.369Z,58.77
2022-08-07T01:56:56.355Z,58.94
2022-08-07T01:58:01.154Z,58.06
2022-08-07T01:58:57.356Z,55.62
2022-08-07T01:59:56.325Z,55.94
2022-08-07T02:01:09.506Z,51.57
2022-08-07T02:02:01.671Z,54.09
2022-08-07T02:03:18.818Z,54.98
2022-08-07T02:03:57.332Z,55.16
2022-08-07T02:04:57.320Z,57.77
2022-08-07T02:05:59.804Z,56.36
2022-08-07T02:06:56.316Z,52.59
2022-08-07T02:07:56.252Z,55.76
2022-08-07T02:08:56.243Z,50.11
2022-08-07T02:09:58.275Z,51.77
2022-08-07T02:10:58.068Z,54.81
2022-08-07T02:12:05.005Z,55.81
2022-08-07T02:12:57.217Z,49.27
2022-08-07T02:13:57.713Z,51.11
2022-08-07T02:14:56.193Z,55.50
2022-08-07T02:15:56.181Z,54.76
2022-08-07T02:16:56.174Z,54.68
2022-08-07T02:17:56.542Z,55.14
2022-08-07T02:18:56.163Z,55.30
2022-08-07T02:20:04.686Z,58.69
2022-08-07T02:20:57.451Z,57.26
2022-08-07T02:21:57.813Z,55.74
2022-08-07T02:22:56.126Z,56.73
2022-08-07T02:23:56.142Z,55.84
2022-08-07T02:24:56.121Z,54.72
2022-08-07T02:26:31.438Z,56.27
2022-08-07T02:26:57.105Z,57.66
2022-08-07T02:27:56.099Z,55.83
2022-08-07T02:28:56.079Z,56.63
2022-08-07T02:29:56.092Z,56.13
2022-08-07T02:30:56.074Z,52.91
2022-08-07T02:31:56.065Z,54.96
2022-08-07T02:33:07.169Z,55.58
2022-08-07T02:34:03.712Z,53.82
2022-08-07T02:34:57.048Z,57.61
2022-08-07T02:36:29.081Z,57.18
2022-08-07T02:36:57.015Z,55.89
2022-08-07T02:37:56.015Z,59.30
2022-08-07T02:38:56.814Z,54.20
2022-08-07T02:40:11.868Z,53.79
2022-08-07T02:40:57.054Z,56.65
2022-08-07T02:41:56.547Z,57.91
2022-08-07T02:42:55.997Z,55.90
2022-08-07T02:43:55.964Z,56.95
2022-08-07T02:44:56.004Z,57.60
2022-08-07T02:46:00.814Z,58.74
2022-08-07T02:46:56.952Z,54.42
2022-08-07T02:47:55.926Z,53.46
2022-08-07T02:48:55.916Z,59.58
2022-08-07T02:49:59.661Z,55.11
2022-08-07T02:50:55.905Z,57.01
2022-08-07T02:51:55.922Z,57.62
2022-08-07T02:53:03.478Z,55.21
2022-08-07T02:53:56.881Z,55.02
2022-08-07T02:54:55.873Z,55.68
2022-08-07T02:56:02.478Z,55.53
2022-08-07T02:59:24.181Z,57.74
2022-08-07T03:00:22.991Z,58.85
2022-08-07T03:01:35.683Z,58.95
2022-08-07T03:02:23.988Z,58.72
2022-08-07T03:03:22.979Z,58.38
2022-08-07T03:04:22.963Z,53.89
2022-08-07T03:05:22.958Z,56.14
2022-08-07T03:06:32.159Z,57.55
2022-08-07T03:07:43.114Z,56.80
2022-08-07T03:08:26.723Z,57.11
2022-08-07T03:09:43.398Z,56.36
2022-08-07T03:10:23.932Z,57.48
2022-08-07T03:11:25.345Z,56.86
2022-08-07T03:12:31.177Z,56.11
2022-08-07T03:13:23.905Z,57.02
2022-08-07T03:14:22.868Z,59.23
2022-08-07T03:15:30.339Z,58.54
2022-08-07T03:16:27.960Z,56.22
2022-08-07T03:17:22.857Z,57.48
2022-08-07T03:18:25.829Z,60.57
2022-08-07T03:19:23.817Z,56.25
2022-08-07T03:20:23.807Z,59.21
2022-08-07T03:21:22.826Z,53.27
2022-08-07T03:22:22.807Z,56.33
2022-08-07T03:23:34.173Z,58.16
2022-08-07T03:24:27.548Z,58.91
2022-08-07T03:25:22.787Z,58.47
2022-08-07T03:26:23.650Z,57.46
2022-08-07T03:27:30.466Z,56.35
2022-08-07T03:28:38.048Z,56.50
2022-08-07T03:29:23.731Z,57.66
2022-08-07T03:30:24.418Z,57.26
2022-08-07T03:31:24.506Z,57.78
2022-08-07T03:32:22.793Z,58.33
2022-08-07T03:33:22.693Z,58.77
2022-08-07T03:34:22.933Z,55.75
2022-08-07T03:35:26.123Z,58.67
2022-08-07T03:36:22.670Z,56.72
2022-08-07T03:37:27.760Z,58.83
2022-08-07T03:38:29.476Z,57.92
2022-08-07T03:39:58.921Z,56.84
2022-08-07T03:40:23.692Z,55.45
2022-08-07T03:41:42.569Z,59.12
2022-08-07T03:42:23.612Z,59.16
2022-08-07T03:43:22.609Z,58.48
2022-08-07T03:44:31.918Z,57.99
2022-08-07T03:45:30.908Z,57.57
2022-08-07T03:46:23.626Z,59.36
2022-08-07T03:47:22.927Z,56.88
2022-08-07T03:48:22.586Z,58.63
2022-08-07T03:49:22.555Z,59.25
2022-08-07T03:50:23.268Z,60.01
2022-08-07T03:51:22.533Z,58.30
2022-08-07T03:52:26.448Z,57.89
2022-08-07T03:53:50.104Z,58.81
2022-08-07T03:54:35.896Z,60.03
2022-08-07T03:55:23.509Z,59.94
2022-08-07T03:56:33.372Z,58.13
2022-08-07T03:58:35.018Z,55.64
2022-08-07T03:59:05.708Z,59.67
2022-08-07T03:59:23.476Z,59.76
2022-08-07T04:00:29.307Z,58.14
2022-08-07T04:01:23.491Z,57.94
2022-08-07T04:02:22.437Z,56.64
2022-08-07T04:03:22.491Z,58.80
2022-08-07T04:04:22.419Z,57.04
2022-08-07T04:05:24.014Z,58.28
2022-08-07T04:06:37.170Z,61.43
2022-08-07T04:07:23.397Z,58.67
2022-08-07T04:08:22.399Z,57.01
2022-08-07T04:09:23.377Z,60.38
2022-08-07T04:10:22.384Z,57.88
2022-08-07T04:12:23.691Z,58.97
2022-08-07T04:12:28.778Z,59.21
2022-08-07T04:13:27.630Z,58.13
2022-08-07T04:14:37.299Z,59.30
2022-08-07T04:15:23.864Z,58.46
2022-08-07T04:16:31.473Z,58.21
2022-08-07T04:17:23.340Z,58.61
2022-08-07T04:18:57.654Z,57.94
2022-08-07T04:19:23.287Z,59.45
2022-08-07T04:20:23.291Z,58.95
2022-08-07T04:21:22.299Z,58.03
2022-08-07T04:22:22.927Z,58.34
2022-08-07T04:23:22.289Z,58.97
2022-08-07T04:24:30.566Z,59.21
2022-08-07T04:25:23.584Z,61.56
2022-08-07T04:26:22.248Z,58.86
2022-08-07T04:27:36.029Z,59.12
2022-08-07T04:28:23.234Z,60.56
2022-08-07T04:29:22.217Z,58.01
2022-08-07T04:30:39.162Z,55.74
2022-08-07T04:32:02.169Z,60.52
2022-08-07T04:32:27.210Z,60.65
2022-08-07T04:33:23.281Z,57.84
2022-08-07T04:34:24.058Z,57.24
2022-08-07T04:35:23.151Z,57.47
2022-08-07T04:36:22.863Z,59.32
2022-08-07T04:37:22.161Z,56.61
2022-08-07T04:38:22.161Z,54.82
2022-08-07T04:39:25.984Z,57.09
2022-08-07T04:40:22.141Z,58.65
2022-08-07T04:41:22.180Z,60.04
2022-08-07T04:42:22.095Z,58.25
2022-08-07T04:44:11.863Z,59.31
2022-08-07T04:44:23.093Z,57.55
2022-08-07T04:45:57.812Z,57.19
2022-08-07T04:46:29.375Z,61.40
2022-08-07T04:47:23.532Z,57.28
2022-08-07T04:48:23.058Z,60.00
2022-08-07T04:49:24.630Z,57.42
2022-08-07T04:50:22.190Z,58.27
2022-08-07T04:51:27.192Z,59.49
2022-08-07T04:52:25.162Z,58.30
2022-08-07T04:53:40.015Z,58.21
2022-08-07T04:54:23.013Z,56.95
2022-08-07T04:58:10.150Z,60.60
2022-08-07T04:58:11.836Z,55.05
2022-08-07T04:58:14.632Z,58.31
2022-08-07T04:58:33.815Z,58.25
2022-08-07T05:00:10.703Z,56.77
2022-08-07T05:00:30.641Z,57.42
2022-08-07T05:01:22.983Z,60.18
2022-08-07T05:02:22.922Z,60.72
2022-08-07T05:03:38.923Z,60.87
2022-08-07T05:04:22.906Z,58.87
2022-08-07T05:05:52.685Z,58.90
2022-08-07T05:06:22.911Z,55.84
2022-08-07T05:07:28.954Z,58.53
2022-08-07T05:08:59.696Z,60.18
2022-08-07T05:09:43.196Z,57.18
2022-08-07T05:10:22.897Z,60.11
2022-08-07T05:11:24.355Z,58.70
2022-08-07T05:12:27.363Z,58.02
2022-08-07T05:14:52.509Z,58.40
2022-08-07T05:14:56.260Z,60.62
2022-08-07T05:15:23.883Z,59.07
2022-08-07T05:16:21.829Z,59.04
2022-08-07T05:17:51.898Z,56.79
2022-08-07T05:18:22.797Z,57.97
2022-08-07T05:19:25.730Z,57.96
2022-08-07T05:20:22.782Z,57.10
2022-08-07T05:21:59.532Z,60.11
2022-08-07T05:22:27.668Z,58.43
2022-08-07T05:23:29.044Z,59.68
2022-08-07T05:24:24.549Z,63.10
2022-08-07T05:25:35.558Z,57.82
2022-08-07T05:26:24.090Z,56.33
2022-08-07T05:28:02.108Z,57.27
2022-08-07T05:28:26.576Z,55.46
2022-08-07T05:29:21.697Z,57.97
2022-08-07T05:30:30.198Z,58.14
2022-08-07T05:31:23.073Z,56.09
2022-08-07T05:32:21.722Z,59.41
2022-08-07T05:33:21.742Z,55.50
2022-08-07T05:34:21.680Z,56.15
2022-08-07T05:35:33.248Z,58.46
2022-08-07T05:36:30.388Z,55.94
2022-08-07T05:37:25.140Z,55.94
2022-08-07T05:39:00.142Z,58.41
2022-08-07T05:40:17.437Z,53.92
2022-08-07T05:40:22.710Z,56.22
2022-08-07T05:41:22.710Z,58.53
2022-08-07T05:42:33.424Z,56.11
2022-08-07T05:43:49.569Z,57.44
2022-08-07T05:44:29.240Z,54.47
2022-08-07T05:45:46.338Z,57.09
2022-08-07T05:46:22.553Z,56.67
2022-08-07T05:47:38.126Z,51.81
2022-08-07T05:48:26.740Z,56.59
2022-08-07T05:49:21.538Z,57.16
2022-08-07T05:50:21.554Z,57.48
2022-08-07T05:51:21.523Z,55.82
2022-08-07T05:52:30.020Z,55.78
2022-08-07T05:54:09.508Z,57.55
2022-08-07T05:54:31.055Z,55.48
2022-08-07T05:55:22.512Z,55.99
2022-08-07T05:56:29.958Z,55.85
2022-08-07T05:57:22.483Z,58.86
2022-08-07T05:58:36.240Z,56.96
2022-08-07T05:59:22.456Z,58.55
2022-08-07T06:00:21.458Z,58.99
2022-08-07T06:01:21.716Z,57.93
2022-08-07T06:02:22.737Z,60.03
2022-08-07T06:03:22.438Z,56.93
2022-08-07T06:04:21.407Z,58.24
2022-08-07T06:05:25.975Z,53.54
2022-08-07T06:06:22.397Z,57.26
2022-08-07T06:07:22.938Z,57.17
2022-08-07T06:08:30.758Z,57.21
2022-08-07T06:09:22.416Z,58.72
2022-08-07T06:10:22.373Z,54.29
2022-08-07T06:11:21.366Z,57.33
2022-08-07T06:12:27.779Z,54.99
2022-08-07T06:13:31.630Z,57.30
2022-08-07T06:14:28.782Z,57.85
2022-08-07T06:15:22.315Z,60.06
2022-08-07T06:16:22.333Z,54.02
2022-08-07T06:17:22.507Z,57.15
2022-08-07T06:18:22.297Z,56.36
2022-08-07T06:19:52.370Z,57.78
2022-08-07T06:20:31.662Z,59.59
2022-08-07T06:22:15.858Z,56.01
2022-08-07T06:22:23.802Z,56.16
2022-08-07T06:23:46.890Z,56.13
2022-08-07T06:24:38.440Z,56.37
2022-08-07T06:25:22.258Z,56.02
2022-08-07T06:26:21.248Z,56.46
2022-08-07T06:27:22.867Z,54.87
2022-08-07T06:28:27.312Z,58.31
2022-08-07T06:29:22.208Z,57.64
2022-08-07T06:30:32.109Z,56.58
2022-08-07T06:31:24.160Z,54.50
2022-08-07T06:32:22.211Z,55.72
2022-08-07T06:33:22.707Z,57.53
2022-08-07T06:34:21.614Z,59.82
2022-08-07T06:35:21.153Z,55.58
2022-08-07T06:36:35.397Z,59.26
2022-08-07T06:37:22.160Z,56.05
2022-08-07T06:38:21.235Z,58.10
2022-08-07T06:40:13.317Z,56.02
2022-08-07T06:40:22.200Z,56.65
2022-08-07T06:41:47.643Z,58.99
2022-08-07T06:42:26.640Z,55.44
2022-08-07T06:43:22.318Z,54.63
2022-08-07T06:44:21.099Z,55.42
2022-08-07T06:45:21.261Z,56.45
2022-08-07T06:46:35.136Z,57.28
2022-08-07T06:47:22.125Z,55.76
2022-08-07T06:48:24.792Z,55.54
2022-08-07T06:49:21.059Z,55.26
2022-08-07T06:50:21.028Z,54.75
2022-08-07T06:51:31.319Z,56.64
2022-08-07T06:52:31.556Z,56.90
2022-08-07T06:55:28.646Z,55.85
2022-08-07T06:55:32.698Z,55.50
2022-08-07T06:55:33.156Z,54.47
2022-08-07T06:56:21.974Z,54.24
2022-08-07T06:57:20.977Z,57.55
2022-08-07T06:58:24.593Z,54.42
2022-08-07T07:00:12.819Z,57.23
2022-08-07T07:00:21.940Z,55.78
2022-08-07T07:01:20.995Z,53.73
2022-08-07T07:02:48.231Z,56.06
2022-08-07T07:03:26.442Z,53.97
2022-08-07T07:04:32.724Z,56.50
2022-08-07T07:06:03.414Z,55.28
2022-08-07T07:06:26.407Z,55.25
2022-08-07T07:08:00.368Z,56.91
2022-08-07T07:08:25.704Z,55.43
2022-08-07T07:09:20.869Z,58.39
2022-08-07T07:10:21.271Z,58.90
2022-08-07T07:12:08.781Z,55.83
2022-08-07T07:12:30.732Z,54.48
2022-08-07T07:13:56.672Z,60.85
2022-08-07T07:14:22.060Z,55.91
2022-08-07T07:15:23.796Z,56.42
2022-08-07T07:16:20.956Z,54.56
2022-08-07T07:17:20.810Z,55.82
2022-08-07T07:18:46.838Z,54.79
2022-08-07T07:19:55.653Z,57.25
2022-08-07T07:20:21.780Z,56.05
2022-08-07T07:21:20.775Z,58.35
2022-08-07T07:22:36.835Z,53.81
2022-08-07T07:24:10.936Z,57.59
2022-08-07T07:24:22.008Z,55.61
2022-08-07T07:26:32.288Z,57.29
2022-08-07T07:26:34.758Z,56.64
2022-08-07T07:27:21.888Z,58.48
2022-08-07T07:28:42.484Z,56.30
2022-08-07T07:29:39.318Z,54.16
2022-08-07T07:30:26.524Z,58.20
2022-08-07T07:31:21.829Z,58.13
2022-08-07T07:32:20.683Z,57.60
2022-08-07T07:33:20.676Z,54.73
2022-08-07T07:34:20.685Z,59.64
2022-08-07T07:35:20.656Z,54.27
2022-08-07T07:36:20.650Z,56.40
2022-08-07T07:37:44.469Z,56.39
2022-08-07T07:38:21.634Z,53.51
2022-08-07T07:39:20.661Z,53.20
2022-08-07T07:40:20.613Z,54.79
2022-08-07T07:41:21.615Z,56.86
2022-08-07T07:42:25.743Z,55.81
2022-08-07T07:43:27.538Z,57.13
2022-08-07T07:44:26.068Z,56.37
2022-08-07T07:45:24.557Z,55.35
2022-08-07T07:46:37.146Z,56.04
2022-08-07T07:47:23.881Z,58.09
2022-08-07T07:48:35.286Z,56.39
2022-08-07T07:50:34.012Z,53.85
2022-08-07T07:50:34.693Z,57.68
2022-08-07T07:51:21.547Z,58.51
2022-08-07T07:52:20.514Z,59.42
2022-08-07T07:53:25.664Z,55.30
2022-08-07T07:54:21.727Z,55.67
2022-08-07T07:55:20.488Z,58.95
2022-08-07T07:56:30.116Z,57.56
2022-08-07T07:57:21.485Z,54.30
2022-08-07T07:58:21.534Z,58.42
2022-08-07T07:59:27.178Z,55.53
2022-08-07T08:00:29.583Z,56.75
2022-08-07T08:02:01.849Z,55.23
2022-08-07T08:02:34.314Z,59.21
2022-08-07T08:04:09.411Z,57.41
2022-08-07T08:04:25.691Z,57.39
2022-08-07T08:05:20.412Z,56.16
2022-08-07T08:06:20.399Z,56.60
2022-08-07T08:07:20.417Z,58.29
2022-08-07T08:08:34.815Z,58.17
2022-08-07T08:09:22.783Z,54.03
2022-08-07T08:10:37.992Z,57.91
2022-08-07T08:11:59.850Z,56.90
2022-08-07T08:12:43.171Z,58.40
2022-08-07T08:13:21.351Z,58.81
2022-08-07T08:14:24.563Z,58.32
2022-08-07T08:15:23.301Z,57.65
2022-08-07T08:16:20.353Z,57.73
2022-08-07T08:17:57.501Z,56.79
2022-08-07T08:18:21.361Z,58.61
2022-08-07T08:20:15.917Z,57.64
2022-08-07T08:20:23.894Z,56.83
2022-08-07T08:21:22.020Z,58.05
2022-08-07T08:22:21.284Z,60.38
2022-08-07T08:23:21.445Z,59.19
2022-08-07T08:24:36.467Z,57.95
2022-08-07T08:25:41.745Z,58.95
2022-08-07T08:26:21.344Z,56.98
2022-08-07T08:27:20.522Z,58.28
2022-08-07T08:28:23.882Z,59.52
2022-08-07T08:29:21.225Z,57.87
2022-08-07T08:30:20.990Z,59.57
2022-08-07T08:31:22.740Z,58.31
2022-08-07T08:32:25.470Z,57.94
2022-08-07T08:33:21.976Z,57.16
2022-08-07T08:34:27.320Z,59.04
2022-08-07T08:35:21.190Z,55.59
2022-08-07T08:36:25.640Z,56.67
2022-08-07T08:37:59.888Z,56.70
2022-08-07T08:38:29.270Z,59.35
2022-08-07T08:39:21.187Z,56.30
2022-08-07T08:40:28.311Z,58.61
2022-08-07T08:41:21.161Z,55.10
2022-08-07T08:42:20.594Z,56.53
2022-08-07T08:43:21.100Z,55.21
2022-08-07T08:44:29.466Z,57.82
2022-08-07T08:45:21.082Z,59.38
2022-08-07T08:46:21.986Z,58.10
2022-08-07T08:47:20.182Z,56.66
2022-08-07T08:48:20.053Z,57.24
2022-08-07T08:49:32.887Z,56.62
2022-08-07T08:50:35.233Z,57.80
2022-08-07T08:51:49.418Z,56.40
2022-08-07T08:52:21.052Z,58.41
2022-08-07T08:53:20.023Z,59.36
2022-08-07T08:54:20.026Z,58.05
2022-08-07T08:55:20.747Z,58.40
2022-08-07T08:56:24.402Z,56.73
2022-08-07T08:57:20.078Z,55.18
2022-08-07T08:58:20.420Z,53.25
2022-08-07T08:59:21.071Z,54.87
2022-08-07T09:00:19.969Z,56.63
2022-08-07T09:01:20.115Z,55.61
2022-08-07T09:02:34.604Z,56.24
2022-08-07T09:03:20.964Z,54.17
2022-08-07T09:04:25.716Z,56.17
2022-08-07T09:05:26.382Z,53.57
2022-08-07T09:06:21.675Z,54.58
2022-08-07T09:07:24.367Z,54.72
2022-08-07T09:08:24.285Z,52.37
2022-08-07T09:09:30.302Z,54.08
2022-08-07T09:10:21.593Z,55.25
2022-08-07T09:11:24.338Z,53.91
2022-08-07T09:12:31.804Z,54.88
2022-08-07T09:13:20.890Z,55.37
2022-08-07T09:14:20.913Z,53.68
2022-08-07T09:16:22.086Z,54.88
2022-08-07T09:16:29.814Z,54.30
2022-08-07T09:17:20.975Z,51.03
2022-08-07T09:18:22.830Z,54.08
2022-08-07T09:19:44.873Z,53.97
2022-08-07T09:20:34.833Z,53.38
2022-08-07T09:21:34.108Z,53.54
2022-08-07T09:24:28.837Z,54.86
2022-08-07T09:24:30.925Z,55.34
2022-08-07T09:24:33.845Z,54.81
2022-08-07T09:25:20.764Z,54.59
2022-08-07T09:26:20.804Z,53.80
2022-08-07T09:27:19.758Z,54.69
2022-08-07T09:30:01.765Z,53.73
2022-08-07T09:30:04.469Z,55.23
2022-08-07T09:30:25.487Z,54.14
2022-08-07T09:31:20.764Z,51.59
2022-08-07T09:32:20.965Z,52.32
2022-08-07T09:33:40.944Z,53.74
2022-08-07T09:34:20.844Z,54.66
2022-08-07T09:36:04.082Z,51.94
2022-08-07T09:36:20.699Z,52.41
2022-08-07T09:37:19.681Z,52.91
2022-08-07T09:38:19.655Z,50.20
2022-08-07T09:39:52.555Z,52.63
2022-08-07T09:40:20.738Z,52.30
2022-08-07T09:41:19.650Z,54.26
2022-08-07T09:42:24.977Z,53.64
2022-08-07T09:43:20.611Z,55.71
2022-08-07T09:44:32.938Z,53.82
2022-08-07T09:47:25.996Z,55.72
2022-08-07T09:47:49.519Z,54.85
2022-08-07T09:47:51.998Z,54.61
2022-08-07T09:48:20.907Z,53.92
2022-08-07T09:50:02.105Z,54.91
2022-08-07T09:50:20.546Z,54.24
2022-08-07T09:52:10.806Z,55.04
2022-08-07T09:52:33.868Z,55.99
2022-08-07T09:53:20.543Z,55.19
2022-08-07T09:54:19.518Z,55.09
2022-08-07T09:55:29.804Z,54.02
2022-08-07T09:56:33.797Z,52.78
2022-08-07T09:57:20.482Z,53.81
2022-08-07T09:58:19.481Z,52.38
2022-08-07T09:59:21.950Z,52.06
2022-08-07T10:00:19.486Z,51.94
2022-08-07T10:01:50.601Z,55.48
2022-08-07T10:02:20.461Z,54.94
2022-08-07T10:04:05.331Z,54.24
2022-08-07T10:04:28.184Z,53.56
2022-08-07T10:05:21.292Z,53.17
2022-08-07T10:06:24.483Z,52.83
2022-08-07T10:07:26.228Z,53.66
2022-08-07T10:08:20.387Z,52.71
2022-08-07T10:09:34.426Z,54.28
2022-08-07T10:10:21.292Z,54.23
2022-08-07T10:12:01.554Z,51.91
2022-08-07T10:12:21.529Z,52.38
2022-08-07T10:13:54.878Z,53.93
2022-08-07T10:14:23.014Z,52.93
2022-08-07T10:15:20.364Z,52.73
2022-08-07T10:16:19.323Z,53.89
2022-08-07T10:17:19.327Z,54.12
2022-08-07T10:18:19.781Z,53.91
2022-08-07T10:19:19.345Z,54.87
2022-08-07T10:20:22.082Z,54.12
2022-08-07T10:22:14.198Z,52.75
2022-08-07T10:22:24.911Z,53.36
2022-08-07T10:24:06.045Z,51.22
2022-08-07T10:24:21.369Z,53.11
2022-08-07T10:25:22.547Z,52.57
2022-08-07T10:26:24.727Z,53.03
2022-08-07T10:27:20.256Z,52.58
2022-08-07T10:28:19.231Z,53.21
2022-08-07T10:29:19.198Z,53.84
2022-08-07T10:30:19.195Z,54.63
2022-08-07T10:31:19.210Z,51.26
2022-08-07T10:32:51.510Z,52.08
2022-08-07T10:33:20.204Z,51.51
2022-08-07T10:34:27.308Z,52.26
2022-08-07T10:35:20.349Z,52.60
2022-08-07T10:36:19.149Z,52.90
2022-08-07T10:37:22.294Z,51.04
2022-08-07T10:38:36.198Z,51.65
2022-08-07T10:39:20.210Z,52.66
2022-08-07T10:40:20.966Z,52.69
2022-08-07T10:41:46.473Z,52.19
2022-08-07T10:42:21.196Z,52.59
2022-08-07T10:43:29.871Z,52.34
2022-08-07T10:44:28.385Z,51.51
2022-08-07T10:45:57.328Z,49.66
2022-08-07T10:46:20.061Z,53.52
2022-08-07T10:47:19.083Z,51.82
2022-08-07T10:48:20.053Z,51.44
2022-08-07T10:49:24.450Z,52.50
2022-08-07T10:50:20.052Z,50.88
2022-08-07T10:51:57.628Z,50.45
2022-08-07T10:52:20.020Z,52.17
2022-08-07T10:53:21.200Z,53.29
2022-08-07T10:54:26.535Z,54.01
2022-08-07T10:55:26.825Z,54.01
2022-08-07T10:56:20.682Z,53.29
2022-08-07T10:57:33.938Z,53.06
2022-08-07T10:58:31.972Z,54.48
2022-08-07T10:59:21.760Z,52.16
2022-08-07T11:00:39.547Z,52.05
2022-08-07T11:01:22.348Z,52.57
2022-08-07T11:02:32.818Z,52.84
2022-08-07T11:03:19.938Z,53.01
2022-08-07T11:04:31.827Z,51.27
2022-08-07T11:05:19.910Z,52.06
2022-08-07T11:06:18.903Z,52.36
2022-08-07T11:07:56.551Z,51.15
2022-08-07T11:08:19.909Z,51.64
2022-08-07T11:10:09.746Z,52.53
2022-08-07T11:10:19.918Z,51.90
2022-08-07T11:11:20.847Z,52.91
2022-08-07T11:12:31.472Z,55.22
2022-08-07T11:14:42.273Z,50.60
2022-08-07T11:14:46.136Z,53.33
2022-08-07T11:15:19.818Z,53.89
2022-08-07T11:16:19.813Z,55.42
2022-08-07T11:17:42.624Z,53.22
2022-08-07T11:18:19.899Z,53.17
2022-08-07T11:19:21.408Z,52.61
2022-08-07T11:20:19.139Z,52.57
2022-08-07T11:21:18.761Z,52.82
2022-08-07T11:22:32.456Z,51.43
2022-08-07T11:23:26.153Z,49.63
2022-08-07T11:24:19.763Z,51.39
2022-08-07T11:25:19.825Z,52.33
2022-08-07T11:26:18.720Z,53.60
2022-08-07T11:27:20.693Z,50.30
2022-08-07T11:28:19.741Z,50.84
2022-08-07T11:29:40.764Z,52.41
2022-08-07T11:30:19.761Z,53.02
2022-08-07T11:31:19.677Z,52.14
2022-08-07T11:32:25.445Z,53.01
2022-08-07T11:33:19.676Z,50.86
2022-08-07T11:34:19.666Z,50.18
2022-08-07T11:35:25.282Z,51.35
2022-08-07T11:36:20.603Z,55.07
2022-08-07T11:37:19.637Z,53.08
2022-08-07T11:38:18.632Z,52.49
2022-08-07T11:39:19.713Z,52.82
2022-08-07T11:40:19.181Z,54.38
2022-08-07T11:41:28.406Z,53.50
2022-08-07T11:42:19.612Z,52.68
2022-08-07T11:43:18.598Z,50.72
2022-08-07T11:44:19.569Z,54.00
2022-08-07T11:45:20.439Z,54.17
2022-08-07T11:46:18.590Z,53.27
2022-08-07T11:47:18.593Z,53.48
2022-08-07T11:48:29.698Z,53.82
2022-08-07T11:49:51.599Z,53.67
2022-08-07T11:50:31.734Z,51.76
2022-08-07T11:51:40.948Z,53.85
2022-08-07T11:52:19.514Z,53.48
2022-08-07T11:53:21.915Z,55.12
2022-08-07T11:54:18.517Z,55.00
2022-08-07T11:56:25.065Z,51.02
2022-08-07T11:56:27.190Z,52.82
2022-08-07T11:57:19.460Z,51.57
2022-08-07T11:58:19.467Z,52.48
2022-08-07T11:59:22.174Z,54.72
2022-08-07T12:00:20.171Z,54.06
2022-08-07T12:01:20.203Z,55.91
2022-08-07T12:02:20.829Z,54.16
2022-08-07T12:03:42.198Z,55.26
2022-08-07T12:04:19.744Z,55.79
2022-08-07T12:05:28.470Z,55.85
2022-08-07T12:06:37.712Z,53.37
2022-08-07T12:07:26.927Z,51.83
2022-08-07T12:08:25.745Z,50.37
2022-08-07T12:09:22.927Z,51.15
2022-08-07T12:10:18.409Z,52.38
2022-08-07T12:11:21.542Z,52.88
2022-08-07T12:12:18.335Z,50.33
2022-08-07T12:13:18.779Z,51.62
2022-08-07T12:14:19.346Z,50.64
2022-08-07T12:15:46.134Z,52.34
2022-08-07T12:16:30.077Z,55.62
2022-08-07T12:17:33.422Z,52.18
2022-08-07T12:18:22.306Z,54.54
2022-08-07T12:19:21.173Z,52.33
2022-08-07T12:20:29.730Z,55.40
2022-08-07T12:21:33.566Z,55.66
2022-08-07T12:22:39.342Z,54.38
2022-08-07T12:23:21.414Z,55.70
2022-08-07T12:24:37.392Z,53.73
2022-08-07T12:26:05.915Z,51.70
2022-08-07T12:26:29.054Z,51.82
2022-08-07T12:27:28.079Z,52.80
2022-08-07T12:28:31.108Z,54.31
2022-08-07T12:29:20.395Z,55.08
2022-08-07T12:30:19.193Z,51.06
2022-08-07T12:31:22.476Z,52.79
2022-08-07T12:32:19.177Z,53.76
2022-08-07T12:33:23.123Z,54.55
2022-08-07T12:34:19.305Z,54.13
2022-08-07T12:35:19.157Z,53.76
2022-08-07T12:36:18.139Z,54.00
2022-08-07T12:37:27.894Z,53.40
2022-08-07T12:38:29.309Z,53.99
2022-08-07T12:39:44.422Z,51.43
2022-08-07T12:40:43.986Z,50.95
2022-08-07T12:41:19.147Z,53.02
2022-08-07T12:42:18.086Z,49.59
2022-08-07T12:44:03.586Z,54.23
2022-08-07T12:44:19.073Z,52.62
2022-08-07T12:45:18.062Z,51.25
2022-08-07T12:46:26.356Z,52.19
2022-08-07T12:47:21.770Z,53.29
2022-08-07T12:48:28.451Z,52.90
2022-08-07T12:49:39.627Z,51.56
2022-08-07T12:50:38.443Z,53.05
2022-08-07T12:51:19.012Z,51.57
2022-08-07T12:52:19.171Z,51.69
2022-08-07T12:53:18.999Z,54.12
2022-08-07T12:54:38.046Z,54.64
2022-08-07T12:55:18.994Z,55.71